Weather History for KHSP - January, 2014

Change the Weather History Date:

Thursday, January 2, 2014

  Actual Average (KLWB) Record (KLWB)
Temperature  
Mean Temperature 26 °F 29 °F  
Max Temperature 37 °F 38 °F 64 °F (2000)
Min Temperature 14 °F 19 °F 3 °F (2002)
Degree Days  
Heating Degree Days 39    
Month to date heating degree days  
Since 1 July heating degree days  
Cooling Degree Days 0    
Month to date cooling degree days  
Year to date cooling degree days  
Moisture  
Dew Point 24 °F    
Average Humidity 77    
Maximum Humidity 100    
Minimum Humidity 44    
Precipitation  
Precipitation 0.05 in - - ()
Snow  
Snow 0.00 in - - ()
Month to date snowfall  
Since 1 July snowfall  
Snow Depth -    
Sea Level Pressure  
Sea Level Pressure 29.76 in    
Wind  
Wind Speed 14 mph (WSW)    
Max Wind Speed 37 mph    
Max Gust Speed 46 mph    
Visibility 8 miles    
Events Rain , Snow    
T = Trace of Precipitation, MM = Missing Value Source: NWS Daily Summary

Daily Weather History Graph

Daily Weather History Graph

Search for Another Location

Airport or City:

Trip Planner

Search our weather history database for the weather conditions in past years. The results will help you decide how hot, cold, wet, or windy it might be!

Date:

Astronomy

Jan. 02, 2014 Rise Set
Actual Time 7:35 AM EST 5:11 PM EST
Civil Twilight 7:06 AM EST 5:40 PM EST
Nautical Twilight 6:33 AM EST 6:13 PM EST
Astronomical Twilight 6:01 AM EST 6:45 PM EST
Moon 8:17 AM EST (1/2) 7:04 PM EST (1/2)
Length of Visible Light 10h 34m
Length of Day
9h 36m
New Moon, 2% of the Moon is Illuminated
Jan 2
New Moon
Jan 7
First Quarter
Jan 15
Full
Jan 24
Last Quarter
Jan 30
New

Hourly Weather History & Observations

Time (EST) Temp. Windchill Dew Point Humidity Pressure Visibility Wind Dir Wind Speed Gust Speed Precip Events Conditions
12:15 AM 32.0 °F 22.1 °F 19.4 °F 60% 30.03 in 10.0 mi WSW 13.8 mph - N/A   Clear
12:16 AM 32.0 °F 21.6 °F 19.4 °F 60% 30.03 in 10.0 mi WSW 15.0 mph - N/A   Clear
12:36 AM 32.0 °F 21.6 °F 19.4 °F 60% 30.03 in 10.0 mi WSW 15.0 mph - N/A   Clear
12:55 AM 32.0 °F 21.2 °F 19.4 °F 60% 30.02 in 10.0 mi WSW 16.1 mph - N/A   Clear
1:15 AM 32.0 °F 21.6 °F 19.4 °F 60% 30.02 in 10.0 mi WSW 15.0 mph - N/A   Clear
1:36 AM 32.0 °F 21.6 °F 19.4 °F 60% 30.01 in 10.0 mi West 15.0 mph - N/A   Clear
1:55 AM 32.0 °F 22.1 °F 19.4 °F 60% 30.01 in 10.0 mi West 13.8 mph - N/A   Clear
2:16 AM 32.0 °F 21.6 °F 19.4 °F 60% 30.01 in 10.0 mi West 15.0 mph - N/A   Clear
2:35 AM 32.0 °F 22.1 °F 19.4 °F 60% 30.00 in 10.0 mi West 13.8 mph - N/A   Clear
2:55 AM 32.0 °F 22.1 °F 19.4 °F 60% 29.99 in 10.0 mi West 13.8 mph - N/A   Clear
3:15 AM 33.8 °F 24.8 °F 17.6 °F 52% 29.98 in 10.0 mi West 12.7 mph - N/A   Clear
3:35 AM 32.0 °F 23.6 °F 19.4 °F 60% 29.97 in 10.0 mi West 10.4 mph - N/A   Clear
3:55 AM 33.8 °F 25.3 °F 17.6 °F 52% 29.95 in 10.0 mi WSW 11.5 mph - N/A   Clear
4:15 AM 33.8 °F 24.8 °F 17.6 °F 52% 29.95 in 10.0 mi WSW 12.7 mph - N/A   Clear
4:35 AM 33.8 °F 25.3 °F 17.6 °F 52% 29.94 in 10.0 mi WSW 11.5 mph - N/A   Clear
4:55 AM 33.8 °F 25.8 °F 17.6 °F 52% 29.93 in 10.0 mi WSW 10.4 mph - N/A   Clear
5:15 AM 33.8 °F 25.3 °F 15.8 °F 48% 29.92 in 10.0 mi WSW 11.5 mph - N/A   Clear
5:35 AM 33.8 °F 25.3 °F 15.8 °F 48% 29.91 in 10.0 mi WSW 11.5 mph - N/A   Clear
5:55 AM 33.8 °F 24.8 °F 15.8 °F 48% 29.91 in 10.0 mi WSW 12.7 mph - N/A   Clear
6:15 AM 33.8 °F 24.3 °F 15.8 °F 48% 29.91 in 10.0 mi WSW 13.8 mph - N/A   Clear
6:35 AM 33.8 °F 24.3 °F 15.8 °F 48% 29.91 in 10.0 mi West 13.8 mph - N/A   Clear
6:55 AM 33.8 °F 24.3 °F 15.8 °F 48% 29.90 in 10.0 mi West 13.8 mph - N/A   Clear
7:15 AM 33.8 °F 24.3 °F 15.8 °F 48% 29.90 in 10.0 mi West 13.8 mph - N/A   Clear
7:35 AM 33.8 °F 23.5 °F 15.8 °F 48% 29.90 in 10.0 mi West 16.1 mph - N/A   Scattered Clouds
7:55 AM 35.6 °F 26.2 °F 15.8 °F 44% 29.89 in 10.0 mi West 15.0 mph - N/A   Scattered Clouds
8:35 AM 33.8 °F 23.9 °F 17.6 °F 52% 29.86 in 10.0 mi West 15.0 mph - N/A   Clear
8:55 AM 35.6 °F 26.2 °F 17.6 °F 48% 29.86 in 10.0 mi West 15.0 mph 19.6 mph N/A   Clear
9:15 AM 35.6 °F 25.9 °F 19.4 °F 52% 29.85 in 10.0 mi West 16.1 mph - N/A   Clear
9:36 AM 35.6 °F 29.2 °F 23.0 °F 60% 29.83 in 10.0 mi WSW 8.1 mph - N/A   Clear
9:56 AM 35.6 °F 28.6 °F 26.6 °F 70% 29.83 in 10.0 mi West 9.2 mph - N/A   Scattered Clouds
10:15 AM 35.6 °F 29.9 °F 24.8 °F 65% 29.83 in 10.0 mi WSW 6.9 mph - N/A   Mostly Cloudy
10:35 AM 35.6 °F 29.2 °F 26.6 °F 70% 29.82 in 10.0 mi SW 8.1 mph - N/A   Overcast
10:55 AM 35.6 °F 28.6 °F 28.4 °F 75% 29.81 in 10.0 mi SW 9.2 mph - N/A   Overcast
11:18 AM 37.4 °F 32.1 °F 28.4 °F 70% 29.78 in 10.0 mi SW 6.9 mph - N/A   Overcast
11:35 AM 37.4 °F 31.4 °F 28.4 °F 70% 29.77 in 10.0 mi SW 8.1 mph - N/A   Overcast
11:55 AM 37.4 °F 32.1 °F 28.4 °F 70% 29.76 in 10.0 mi SW 6.9 mph - N/A Rain Rain
12:15 PM 35.6 °F 29.9 °F 30.2 °F 81% 29.74 in 1.5 mi SW 6.9 mph - N/A Snow Light Snow
12:35 PM 33.8 °F 27.7 °F 32.0 °F 93% 29.72 in 2.5 mi South 6.9 mph - N/A Snow Light Snow
12:55 PM 33.8 °F 26.4 °F 33.8 °F 100% 29.71 in 5.0 mi SW 9.2 mph - N/A Rain Light Rain
1:15 PM 33.8 °F 27.0 °F 33.8 °F 100% 29.69 in 7.0 mi SW 8.1 mph - N/A Rain Light Rain
1:35 PM 33.8 °F 28.6 °F 33.8 °F 100% 29.67 in 10.0 mi SSW 5.8 mph - 0.01 in Rain Rain
1:55 PM 35.6 °F 28.6 °F 33.8 °F 93% 29.66 in 5.0 mi SSW 9.2 mph - 0.01 in Rain Light Rain
2:15 PM 35.6 °F 28.6 °F 35.6 °F 100% 29.63 in 10.0 mi SSW 9.2 mph - 0.03 in Rain Rain
2:35 PM 35.6 °F 28.0 °F 35.6 °F 100% 29.62 in 10.0 mi SSW 10.4 mph 17.3 mph 0.04 in Rain Light Rain
2:56 PM 35.6 °F 28.6 °F 35.6 °F 100% 29.61 in 10.0 mi SSW 9.2 mph - N/A Rain Light Rain
3:15 PM 35.6 °F 27.1 °F 35.6 °F 100% 29.60 in 10.0 mi SW 12.7 mph 17.3 mph N/A Rain Light Rain
3:35 PM 35.6 °F 28.0 °F 35.6 °F 100% 29.60 in 10.0 mi SW 10.4 mph 16.1 mph N/A   Overcast
3:55 PM 35.6 °F 27.1 °F 35.6 °F 100% 29.60 in 10.0 mi SW 12.7 mph 16.1 mph N/A   Overcast
4:15 PM 33.8 °F 24.3 °F 33.8 °F 100% 29.60 in 0.5 mi WSW 13.8 mph - N/A   Drizzle
4:35 PM 33.8 °F 25.8 °F 33.8 °F 100% 29.60 in 0.2 mi West 10.4 mph - N/A Snow Snow
4:55 PM 30.2 °F 21.9 °F 30.2 °F 100% 29.60 in 0.2 mi West 9.2 mph - N/A Snow Light Snow
5:15 PM 32.0 °F 22.5 °F 32.0 °F 100% 29.57 in 0.2 mi West 12.7 mph - N/A Snow Snow
5:35 PM 32.0 °F 22.1 °F 32.0 °F 100% 29.58 in 0.2 mi West 13.8 mph 19.6 mph N/A Snow Snow
5:55 PM 32.0 °F 21.2 °F 32.0 °F 100% 29.58 in 0.2 mi West 16.1 mph - N/A Snow Snow
6:15 PM 30.2 °F 19.3 °F 30.2 °F 100% 29.59 in 0.2 mi West 15.0 mph 19.6 mph N/A Snow Heavy Snow
6:35 PM 30.2 °F 18.5 °F 30.2 °F 100% 29.58 in 0.2 mi West 17.3 mph 24.2 mph N/A Snow Light Snow
6:55 PM 30.2 °F 17.8 °F 30.2 °F 100% 29.57 in 1.2 mi West 19.6 mph 25.3 mph N/A   Overcast
7:15 PM 30.2 °F 18.1 °F 30.2 °F 100% 29.57 in 0.2 mi West 18.4 mph 25.3 mph N/A Snow Light Snow
7:35 PM 28.4 °F 15.8 °F 28.4 °F 100% 29.56 in 0.5 mi West 18.4 mph 26.5 mph N/A Snow Light Snow
7:55 PM 28.4 °F 15.8 °F 28.4 °F 100% 29.56 in 0.5 mi West 18.4 mph 25.3 mph N/A Snow Light Snow
8:15 PM 28.4 °F 16.2 °F 28.4 °F 100% 29.55 in 1.0 mi West 17.3 mph 26.5 mph N/A   Overcast
8:35 PM 26.6 °F 15.2 °F 26.6 °F 100% 29.56 in 4.0 mi WNW 13.8 mph 21.9 mph N/A   Overcast
8:55 PM 26.6 °F 13.8 °F 26.6 °F 100% 29.55 in 10.0 mi WNW 17.3 mph 31.1 mph N/A   Overcast
9:15 PM 24.8 °F 9.6 °F 24.8 °F 100% 29.55 in 10.0 mi WNW 23.0 mph 29.9 mph N/A   Overcast
9:35 PM 24.8 °F 10.3 °F 24.8 °F 100% 29.54 in 10.0 mi WNW 20.7 mph 31.1 mph N/A   Overcast
9:55 PM 24.8 °F 9.6 °F 24.8 °F 100% 29.55 in 10.0 mi WNW 23.0 mph 31.1 mph N/A   Overcast
10:15 PM 23.0 °F 6.9 °F 21.2 °F 93% 29.56 in 10.0 mi West 24.2 mph 34.5 mph N/A   Overcast
10:35 PM 21.2 °F 4.9 °F 19.4 °F 93% 29.56 in 10.0 mi WNW 23.0 mph 38.0 mph N/A   Overcast
10:55 PM 19.4 °F 0.5 °F 15.8 °F 86% 29.56 in 10.0 mi WNW 29.9 mph 41.4 mph N/A   Overcast
11:15 PM 17.6 °F -0.6 °F 14.0 °F 86% 29.58 in 10.0 mi WNW 25.3 mph 38.0 mph N/A   Overcast
11:35 PM 15.8 °F -4.7 °F 12.2 °F 86% 29.59 in 10.0 mi WNW 31.1 mph 40.3 mph N/A   Overcast
11:55 PM 14.0 °F -8.5 °F 10.4 °F 86% 29.57 in 10.0 mi WNW 36.8 mph 46.0 mph N/A   Mostly Cloudy